Time;durP1;ratioP1;P1;durP2;ratioP2;P2;SDS_P1;SDS_P2;PMS_P1;PMS_P2;Temp;Humidity;BMP_temperature;BMP_pressure;BME280_temperature;BME280_humidity;BME280_pressure;Samples;Min_cycle;Max_cycle;Signal;HPM_P1;HPM_P2
2022/12/19 00:02:25;;;;;;;13.07;5.23;;;;;;;-3.13;90.31;101866.63;6051066;28;20038;-68
2022/12/19 00:05:21;;;;;;;20.13;8.03;;;;;;;-3.04;89.63;101867.28;6051540;28;20048;-68
2022/12/19 00:08:16;;;;;;;20.25;8.48;;;;;;;-3.10;90.64;101856.19;6051757;28;20364;-67
2022/12/19 00:11:12;;;;;;;17.77;6.10;;;;;;;-3.16;90.04;101853.72;6051074;28;20108;-67
2022/12/19 00:14:11;;;;;;;15.85;6.80;;;;;;;-3.07;90.38;101840.53;6050589;28;20026;-69
2022/12/19 00:17:06;;;;;;;16.13;6.70;;;;;;;-3.05;90.50;101843.97;6051672;28;20056;-67
2022/12/19 00:20:01;;;;;;;15.63;5.93;;;;;;;-2.94;90.05;101849.78;6051339;28;20550;-67
2022/12/19 00:22:57;;;;;;;18.77;7.43;;;;;;;-2.93;89.89;101835.91;6050329;28;20022;-68
2022/12/19 00:25:52;;;;;;;17.98;6.78;;;;;;;-2.96;89.42;101835.97;6051321;28;20037;-67
2022/12/19 00:28:53;;;;;;;13.77;5.53;;;;;;;-2.87;89.72;101834.94;6051115;28;20125;-69
2022/12/19 00:31:49;;;;;;;16.55;6.63;;;;;;;-2.73;90.12;101833.75;6050572;28;20422;-68
2022/12/19 00:34:44;;;;;;;20.53;7.27;;;;;;;-2.71;90.22;101826.78;6049867;28;20076;-68
2022/12/19 00:37:39;;;;;;;20.25;8.50;;;;;;;-2.64;90.22;101817.97;6051127;28;20034;-68
2022/12/19 00:40:34;;;;;;;15.03;6.20;;;;;;;-2.60;89.93;101805.75;6050996;28;20038;-68
2022/12/19 00:43:30;;;;;;;18.13;7.37;;;;;;;-2.47;89.43;101800.22;6049935;28;20289;-68
2022/12/19 00:46:26;;;;;;;13.57;6.73;;;;;;;-2.32;89.36;101806.81;6050764;28;20140;-67
2022/12/19 00:49:21;;;;;;;13.80;6.32;;;;;;;-2.27;88.84;101791.09;6050733;28;20038;-68
2022/12/19 00:52:17;;;;;;;18.37;6.80;;;;;;;-2.12;89.20;101793.31;6049882;28;20041;-67
2022/12/19 00:55:12;;;;;;;15.23;5.60;;;;;;;-2.01;88.69;101783.50;6050592;28;20022;-69
2022/12/19 00:58:07;;;;;;;12.03;4.47;;;;;;;-1.65;87.27;101797.22;6050433;28;20268;-68
2022/12/19 01:01:13;;;;;;;13.37;5.60;;;;;;;-1.59;87.20;101787.53;6050407;28;20030;-68
2022/12/19 01:04:15;;;;;;;22.08;6.47;;;;;;;-1.49;87.22;101794.16;6049742;28;20185;-67
2022/12/19 01:07:10;;;;;;;14.70;5.95;;;;;;;-1.35;87.28;101783.38;6050217;28;20402;-68
2022/12/19 01:10:06;;;;;;;15.97;5.17;;;;;;;-0.97;86.00;101775.28;6050120;28;20034;-67
2022/12/19 01:13:01;;;;;;;13.02;4.72;;;;;;;-0.70;85.23;101765.75;6049631;28;20073;-68
2022/12/19 01:16:12;;;;;;;15.50;4.63;;;;;;;-0.38;83.77;101762.94;6050271;28;20117;-67
2022/12/19 01:19:07;;;;;;;9.15;3.50;;;;;;;-0.10;81.64;101762.88;6050065;28;20041;-69
2022/12/19 01:22:03;;;;;;;10.50;4.00;;;;;;;-0.04;81.55;101766.13;6049313;28;20030;-69
2022/12/19 01:24:58;;;;;;;12.37;3.67;;;;;;;0.06;82.96;101786.63;6049669;28;20036;-69
2022/12/19 01:27:54;;;;;;;10.45;3.97;;;;;;;0.11;83.44;101800.41;6050234;28;20148;-68
2022/12/19 01:30:50;;;;;;;10.50;3.72;;;;;;;0.03;84.75;101789.38;6049532;28;20026;-70
2022/12/19 01:33:45;;;;;;;11.75;4.55;;;;;;;-0.05;85.40;101787.88;6049215;28;20104;-69
2022/12/19 01:36:40;;;;;;;10.43;4.00;;;;;;;0.02;85.78;101785.06;6049907;28;20048;-69
2022/12/19 01:39:36;;;;;;;12.93;5.23;;;;;;;-0.05;86.26;101780.06;6049835;28;20430;-68
2022/12/19 01:42:35;;;;;;;18.17;5.87;;;;;;;0.02;86.84;101783.31;6048843;28;20045;-70
2022/12/19 01:45:33;;;;;;;17.73;5.90;;;;;;;0.03;87.59;101784.16;6049358;28;20497;-71
2022/12/19 01:48:30;;;;;;;11.15;4.90;;;;;;;-0.04;88.30;101773.94;6048884;28;20038;-73
2022/12/19 01:51:29;;;;;;;16.38;5.32;;;;;;;-0.01;89.01;101776.44;6032174;28;20030;-71
2022/12/19 01:54:29;;;;;;;15.88;5.18;;;;;;;-0.05;90.66;101771.38;6030368;28;20104;-71
2022/12/19 01:57:25;;;;;;;12.57;5.00;;;;;;;-0.08;91.10;101769.72;6049747;28;20049;-70
2022/12/19 02:00:20;;;;;;;14.50;4.87;;;;;;;-0.16;92.20;101745.69;6049020;28;20112;-71
2022/12/19 02:03:30;;;;;;;19.13;6.40;;;;;;;-0.17;93.42;101766.59;6048486;28;20280;-72
2022/12/19 02:06:26;;;;;;;14.98;4.85;;;;;;;-0.16;93.96;101769.13;6048141;28;20276;-71
2022/12/19 02:09:21;;;;;;;17.15;5.40;;;;;;;-0.16;94.24;101771.75;6049606;28;20095;-74
2022/12/19 02:12:16;;;;;;;16.70;6.20;;;;;;;-0.20;95.89;101770.16;6048332;28;20033;-73
2022/12/19 02:15:13;;;;;;;17.25;5.88;;;;;;;-0.26;96.50;101772.09;6049270;28;20045;-73
2022/12/19 02:18:34;;;;;;;19.77;7.32;;;;;;;-0.23;97.33;101757.22;6049540;28;20042;-73
2022/12/19 02:21:44;;;;;;;22.77;6.95;;;;;;;-0.27;97.28;101749.59;6049600;28;20124;-73
2022/12/19 02:24:45;;;;;;;17.60;6.53;;;;;;;-0.32;98.16;101749.72;6047231;28;20046;-74
2022/12/19 02:28:22;;;;;;;16.58;5.60;;;;;;;-0.30;98.95;101729.66;6049431;28;20057;-73
2022/12/19 02:31:21;;;;;;;16.65;6.22;;;;;;;-0.42;99.95;101701.44;6016475;28;20462;-72
2022/12/19 02:34:20;;;;;;;18.63;6.85;;;;;;;-0.24;99.59;101729.47;6031105;28;20050;-73
2022/12/19 02:37:28;;;;;;;16.67;5.95;;;;;;;-0.24;98.80;101719.03;6049288;28;20037;-72
2022/12/19 02:40:30;;;;;;;18.08;6.88;;;;;;;-0.23;99.62;101719.91;6049354;28;20041;-74
2022/12/19 02:43:28;;;;;;;15.38;5.88;;;;;;;-0.31;99.33;101707.13;6047025;28;20076;-72
2022/12/19 02:46:23;;;;;;;15.70;5.13;;;;;;;-0.25;100.00;101714.75;6047658;28;20532;-73
2022/12/19 02:49:18;;;;;;;18.10;7.13;;;;;;;-0.29;100.00;101705.31;6049235;28;20038;-72
2022/12/19 02:52:19;;;;;;;19.27;6.77;;;;;;;-0.23;99.96;101714.69;6047986;28;20988;-73
2022/12/19 02:55:19;;;;;;;15.90;6.32;;;;;;;-0.23;99.58;101707.72;6048851;28;20068;-73
2022/12/19 02:58:41;;;;;;;17.27;6.32;;;;;;;-0.24;99.47;101700.78;6050110;28;20034;-73
2022/12/19 03:01:37;;;;;;;12.68;5.38;;;;;;;-0.22;99.68;101704.19;6053254;28;20045;-72
2022/12/19 03:04:43;;;;;;;16.57;5.80;;;;;;;-0.25;98.93;101690.44;6052324;28;20038;-73
2022/12/19 03:07:48;;;;;;;14.40;5.53;;;;;;;-0.15;98.36;101705.69;6051983;28;20073;-74
2022/12/19 03:10:48;;;;;;;14.25;5.13;;;;;;;-0.17;97.59;101673.63;6052948;28;20034;-71
2022/12/19 03:13:52;;;;;;;17.30;6.13;;;;;;;-0.03;96.84;101684.41;6051515;28;20056;-73
2022/12/19 03:16:48;;;;;;;16.70;6.53;;;;;;;-0.09;95.68;101670.75;6067590;28;20430;-73
2022/12/19 03:19:44;;;;;;;17.40;6.15;;;;;;;-0.12;95.83;101658.69;6067901;28;20037;-73
2022/12/19 03:22:40;;;;;;;17.05;6.63;;;;;;;-0.02;94.99;101670.47;6052085;28;20372;-74
2022/12/19 03:25:35;;;;;;;16.33;6.17;;;;;;;-0.04;94.81;101667.06;6052761;28;20034;-75
2022/12/19 03:28:48;;;;;;;17.63;6.00;;;;;;;0.06;93.96;101682.34;6053137;28;20034;-75
2022/12/19 03:31:45;;;;;;;18.77;5.82;;;;;;;0.01;93.91;101651.25;6052381;28;20053;-74
2022/12/19 03:34:49;;;;;;;17.15;6.05;;;;;;;-0.01;94.50;101656.53;6038437;28;20475;-72
2022/12/19 03:37:46;;;;;;;15.13;6.70;;;;;;;0.01;94.87;101661.69;6052537;28;20061;-73
2022/12/19 03:40:43;;;;;;;16.10;5.75;;;;;;;0.06;94.31;101667.56;6051286;28;20531;-74
2022/12/19 03:43:40;;;;;;;13.18;5.43;;;;;;;-0.03;94.01;101660.09;6050539;28;20030;-74
2022/12/19 03:46:39;;;;;;;17.63;6.18;;;;;;;-0.02;94.34;101657.44;6050727;28;20045;-71
2022/12/19 03:49:35;;;;;;;17.00;6.18;;;;;;;0.10;94.49;101671.78;6034589;28;20116;-74
2022/12/19 03:52:59;;;;;;;14.38;5.53;;;;;;;0.04;94.68;101660.72;6051414;28;20391;-73
2022/12/19 03:56:35;;;;;;;16.20;6.15;;;;;;;0.10;93.94;101677.00;6052310;28;20068;-74
2022/12/19 03:59:40;;;;;;;14.57;5.80;;;;;;;0.09;95.02;101664.00;6046631;28;20121;-73
2022/12/19 04:02:36;;;;;;;14.57;5.47;;;;;;;0.19;94.65;101665.38;6043982;28;20033;-74
2022/12/19 04:05:32;;;;;;;18.17;7.15;;;;;;;0.09;93.71;101643.16;6051759;28;20513;-74
2022/12/19 04:08:29;;;;;;;17.33;6.22;;;;;;;0.15;93.87;101649.00;6050738;28;20025;-71
2022/12/19 04:11:26;;;;;;;16.42;6.22;;;;;;;0.14;93.08;101646.44;6050888;28;20042;-73
2022/12/19 04:14:26;;;;;;;15.05;6.47;;;;;;;0.20;93.52;101651.41;6033551;28;20022;-73
2022/12/19 04:17:45;;;;;;;18.98;6.68;;;;;;;0.17;93.15;101635.88;6051356;28;20507;-74
2022/12/19 04:20:45;;;;;;;18.02;6.80;;;;;;;0.15;93.16;101619.47;6034271;28;20654;-72
2022/12/19 04:23:45;;;;;;;13.70;6.18;;;;;;;0.22;93.88;101623.56;6033220;28;20041;-72
2022/12/19 04:26:43;;;;;;;15.02;6.28;;;;;;;0.35;92.76;101625.63;6049998;28;20048;-74
2022/12/19 04:29:38;;;;;;;19.52;6.80;;;;;;;0.26;92.89;101614.69;6050176;28;20479;-73
2022/12/19 04:32:34;;;;;;;17.58;6.43;;;;;;;0.20;93.61;101594.06;6032261;28;20084;-73
2022/12/19 04:35:30;;;;;;;16.83;6.63;;;;;;;0.22;94.02;101594.88;6050636;28;20375;-74
2022/12/19 04:38:25;;;;;;;17.70;6.10;;;;;;;0.25;94.11;101592.13;6051013;28;20145;-72
2022/12/19 04:41:21;;;;;;;16.08;6.88;;;;;;;0.16;94.53;101588.13;6050007;28;20221;-73
2022/12/19 04:44:16;;;;;;;15.90;6.40;;;;;;;0.21;94.96;101600.97;6050233;28;20033;-72
2022/12/19 04:47:12;;;;;;;18.90;6.97;;;;;;;0.21;95.29;101585.34;6050791;28;20041;-73
2022/12/19 04:50:08;;;;;;;22.77;7.18;;;;;;;0.14;96.47;101574.28;6050613;28;20087;-74
2022/12/19 04:53:03;;;;;;;19.88;7.18;;;;;;;0.19;95.60;101566.31;6049997;28;20067;-75
2022/12/19 04:56:04;;;;;;;18.13;6.63;;;;;;;0.19;96.70;101550.66;6050951;28;20125;-73
2022/12/19 04:58:59;;;;;;;15.65;6.07;;;;;;;0.21;95.80;101554.03;6050682;28;20049;-74
2022/12/19 05:01:55;;;;;;;19.10;7.10;;;;;;;0.21;96.64;101543.59;6050119;28;20471;-74
2022/12/19 05:04:50;;;;;;;16.03;6.97;;;;;;;0.31;95.86;101560.59;6050317;28;20038;-73
2022/12/19 05:07:45;;;;;;;19.15;6.43;;;;;;;0.30;95.84;101548.47;6050214;28;20099;-75
2022/12/19 05:10:41;;;;;;;19.90;7.83;;;;;;;0.38;96.29;101562.06;6050422;28;20049;-74
2022/12/19 05:13:36;;;;;;;17.80;6.30;;;;;;;0.38;96.11;101554.25;6049417;28;20523;-73
2022/12/19 05:16:31;;;;;;;18.30;6.97;;;;;;;0.37;95.53;101524.69;6049838;28;20041;-74
2022/12/19 05:19:27;;;;;;;18.07;6.37;;;;;;;0.54;95.13;101537.06;6050234;28;20828;-73
2022/12/19 05:22:25;;;;;;;20.30;7.20;;;;;;;0.49;95.16;101529.41;6049166;28;20121;-73
2022/12/19 05:25:20;;;;;;;19.08;6.30;;;;;;;0.60;94.57;101521.13;6050310;28;20041;-75
2022/12/19 05:28:16;;;;;;;16.50;7.00;;;;;;;0.57;94.44;101505.63;6049563;28;20041;-74
2022/12/19 05:31:14;;;;;;;17.25;6.07;;;;;;;0.67;93.92;101508.69;6049577;28;20076;-73
2022/12/19 05:34:10;;;;;;;17.77;7.30;;;;;;;0.72;93.76;101510.19;6049044;28;20029;-74
2022/12/19 05:37:05;;;;;;;14.63;5.50;;;;;;;0.86;93.00;101501.78;6049732;28;20048;-73
2022/12/19 05:40:01;;;;;;;17.83;7.20;;;;;;;0.99;93.42;101509.03;6049859;28;20076;-74
2022/12/19 05:42:56;;;;;;;19.98;7.30;;;;;;;0.88;93.46;101497.34;6049180;28;20030;-74
2022/12/19 05:45:51;;;;;;;20.23;6.87;;;;;;;0.98;93.77;101491.66;6049411;28;20064;-74
2022/12/19 05:48:46;;;;;;;13.93;6.03;;;;;;;1.13;93.38;101496.22;6049939;28;20026;-74
2022/12/19 05:51:42;;;;;;;17.07;7.10;;;;;;;1.16;93.44;101506.53;6049302;28;20030;-74
2022/12/19 05:54:37;;;;;;;19.93;9.53;;;;;;;1.20;93.67;101487.19;6048692;28;20105;-74
2022/12/19 05:57:33;;;;;;;15.48;4.47;;;;;;;1.16;93.43;101487.41;6050452;28;20037;-76
2022/12/19 06:00:28;;;;;;;19.60;7.22;;;;;;;1.14;93.85;101497.09;6049726;28;20036;-74
2022/12/19 06:03:24;;;;;;;14.80;5.63;;;;;;;1.10;94.25;101496.38;6049045;28;20570;-74
2022/12/19 06:06:23;;;;;;;14.30;5.40;;;;;;;1.11;95.05;101494.59;6049609;28;20280;-74
2022/12/19 06:09:18;;;;;;;15.18;6.93;;;;;;;1.09;95.61;101510.31;6049660;28;20120;-74
2022/12/19 06:12:13;;;;;;;15.47;7.57;;;;;;;1.13;96.20;101482.31;6049117;28;20029;-74
2022/12/19 06:15:09;;;;;;;20.30;8.53;;;;;;;0.94;95.96;101431.81;6049181;28;20033;-75
2022/12/19 06:18:04;;;;;;;13.75;6.70;;;;;;;1.11;96.59;101478.94;6048943;28;20061;-74
2022/12/19 06:21:02;;;;;;;16.23;7.30;;;;;;;1.10;96.61;101467.63;6049199;28;20030;-74
2022/12/19 06:23:57;;;;;;;12.05;5.53;;;;;;;1.15;96.32;101468.28;6048339;28;20296;-74
2022/12/19 06:26:53;;;;;;;21.70;7.60;;;;;;;1.05;96.67;101445.25;6049244;28;20036;-73
2022/12/19 06:29:48;;;;;;;18.90;8.17;;;;;;;1.14;97.18;101458.72;6043349;28;20045;-72
2022/12/19 06:32:43;;;;;;;16.57;6.57;;;;;;;1.22;97.38;101457.56;6048216;28;20030;-75
2022/12/19 06:35:39;;;;;;;20.17;7.10;;;;;;;1.13;98.27;101449.22;6053981;28;20042;-73
2022/12/19 06:38:34;;;;;;;17.40;6.77;;;;;;;1.10;98.73;101459.81;6053571;28;20126;-74
2022/12/19 06:44:43;;;;;;;21.27;8.73;;;;;;;1.18;100.00;101454.22;6053272;28;20284;-74
2022/12/19 06:47:38;;;;;;;22.70;7.83;;;;;;;1.12;100.00;101437.06;6053250;28;20049;-72
2022/12/19 06:50:34;;;;;;;22.40;8.70;;;;;;;1.19;100.00;101432.44;6053477;28;20443;-74
2022/12/19 06:53:30;;;;;;;19.88;8.27;;;;;;;1.28;100.00;101439.00;6035207;28;20030;-72
2022/12/19 06:56:25;;;;;;;17.40;7.50;;;;;;;1.24;100.00;101429.59;6053011;28;20510;-74
2022/12/19 06:59:20;;;;;;;20.52;8.80;;;;;;;1.28;100.00;101436.41;6053204;28;20510;-73
2022/12/19 07:02:28;;;;;;;19.17;8.40;;;;;;;1.37;100.00;101430.75;6051942;28;20034;-74
2022/12/19 07:05:24;;;;;;;23.13;8.68;;;;;;;1.36;100.00;101429.06;6053177;28;20026;-74
2022/12/19 07:08:19;;;;;;;21.55;8.88;;;;;;;1.27;100.00;101430.31;6052523;28;20041;-74
2022/12/19 07:11:15;;;;;;;19.20;7.82;;;;;;;1.25;100.00;101428.69;6052788;28;20437;-74
2022/12/19 07:14:10;;;;;;;20.60;8.47;;;;;;;1.23;100.00;101439.19;6052027;28;20044;-73
2022/12/19 07:17:05;;;;;;;13.67;5.83;;;;;;;1.28;100.00;101446.84;6052874;28;20366;-74
2022/12/19 07:20:01;;;;;;;19.20;7.80;;;;;;;1.32;100.00;101462.31;6053170;28;20103;-73
2022/12/19 07:22:56;;;;;;;23.15;7.70;;;;;;;1.20;100.00;101428.88;6051814;28;20080;-75
2022/12/19 07:25:51;;;;;;;25.30;8.87;;;;;;;1.18;100.00;101433.34;6052789;28;20073;-75
2022/12/19 07:28:47;;;;;;;20.57;8.07;;;;;;;1.20;100.00;101442.78;6053072;28;20065;-75
2022/12/19 07:31:42;;;;;;;21.75;6.50;;;;;;;1.19;100.00;101445.50;6050969;28;20180;-75
2022/12/19 07:34:38;;;;;;;23.95;10.38;;;;;;;1.23;100.00;101433.13;6051983;28;20065;-74
2022/12/19 07:37:33;;;;;;;23.23;8.53;;;;;;;1.25;100.00;101424.28;6052623;28;20034;-74
2022/12/19 07:40:28;;;;;;;21.50;10.13;;;;;;;1.37;100.00;101436.81;6051579;28;20087;-75
2022/12/19 07:43:24;;;;;;;23.67;8.13;;;;;;;1.26;100.00;101423.38;6051717;28;20277;-75
2022/12/19 07:46:20;;;;;;;21.85;8.32;;;;;;;1.39;100.00;101431.50;6050909;28;20058;-75
2022/12/19 07:49:16;;;;;;;25.33;9.52;;;;;;;1.41;100.00;101437.53;6052307;28;20037;-74
2022/12/19 07:52:11;;;;;;;18.90;7.43;;;;;;;1.37;100.00;101415.06;6050757;28;20033;-74
2022/12/19 07:55:07;;;;;;;24.77;8.32;;;;;;;1.44;100.00;101437.41;6052396;28;20038;-75
2022/12/19 07:58:02;;;;;;;22.02;8.70;;;;;;;1.39;100.00;101421.06;6051666;28;20042;-74
2022/12/19 08:01:05;;;;;;;22.40;8.07;;;;;;;1.48;100.00;101436.31;6053461;28;20087;-73
2022/12/19 08:04:00;;;;;;;27.08;10.45;;;;;;;1.39;100.00;101418.44;6051697;28;20109;-74
2022/12/19 08:06:56;;;;;;;25.23;9.13;;;;;;;1.41;100.00;101427.09;6051738;28;20044;-74
2022/12/19 08:09:51;;;;;;;24.35;8.40;;;;;;;1.34;100.00;101418.66;6051782;28;20750;-74
2022/12/19 08:12:46;;;;;;;23.90;9.73;;;;;;;1.50;100.00;101426.63;6049870;28;20030;-73
2022/12/19 08:15:42;;;;;;;20.23;9.30;;;;;;;1.50;100.00;101435.31;6050962;28;20092;-74
2022/12/19 08:18:37;;;;;;;32.53;10.10;;;;;;;1.49;100.00;101435.41;6050910;28;20057;-76
2022/12/19 08:21:32;;;;;;;24.73;11.10;;;;;;;1.53;100.00;101423.88;6051291;28;20309;-75
2022/12/19 08:24:29;;;;;;;30.20;8.63;;;;;;;1.46;100.00;101423.34;6051380;28;20038;-73
2022/12/19 08:27:25;;;;;;;28.30;9.77;;;;;;;1.51;100.00;101413.50;6052261;28;20040;-74
2022/12/19 08:30:20;;;;;;;33.05;12.05;;;;;;;1.51;100.00;101423.13;6052007;28;20475;-73
2022/12/19 08:33:16;;;;;;;28.43;10.30;;;;;;;1.52;100.00;101403.91;6051297;28;20029;-74
2022/12/19 08:36:13;;;;;;;41.37;13.47;;;;;;;1.67;100.00;101419.72;6050520;28;20121;-74
2022/12/19 08:39:10;;;;;;;20.58;9.65;;;;;;;1.70;100.00;101414.34;6050627;28;20056;-73
2022/12/19 08:42:05;;;;;;;29.45;10.65;;;;;;;1.63;100.00;101406.88;6049735;28;20390;-74
2022/12/19 08:45:00;;;;;;;30.97;11.53;;;;;;;1.77;100.00;101420.13;6050930;28;20030;-72
2022/12/19 08:47:55;;;;;;;31.77;12.60;;;;;;;1.52;100.00;101383.00;6052223;28;20041;-74
2022/12/19 08:51:02;;;;;;;23.73;9.33;;;;;;;1.81;100.00;101421.69;6050701;28;20038;-73
2022/12/19 08:53:58;;;;;;;25.35;9.07;;;;;;;1.80;100.00;101414.75;6050264;28;20063;-73
2022/12/19 08:56:53;;;;;;;25.80;9.63;;;;;;;1.82;100.00;101412.94;6049842;28;20117;-73
2022/12/19 08:59:48;;;;;;;27.03;11.43;;;;;;;1.79;100.00;101407.84;6050889;28;20022;-73
2022/12/19 09:02:43;;;;;;;25.60;11.50;;;;;;;1.84;100.00;101390.16;6049648;28;20034;-74
2022/12/19 09:05:39;;;;;;;28.63;10.40;;;;;;;1.89;100.00;101403.00;6050585;28;20026;-72
2022/12/19 09:08:35;;;;;;;26.00;10.90;;;;;;;1.89;100.00;101401.25;6032280;28;20595;-73
2022/12/19 09:11:32;;;;;;;22.05;7.53;;;;;;;1.88;100.00;101393.44;6049132;28;20022;-72
2022/12/19 09:14:31;;;;;;;32.15;10.52;;;;;;;1.86;100.00;101388.31;6049069;28;20045;-72
2022/12/19 09:17:27;;;;;;;29.08;12.25;;;;;;;2.00;100.00;101398.94;6032126;28;20030;-72
2022/12/19 09:20:22;;;;;;;25.77;8.17;;;;;;;2.00;100.00;101393.72;6048638;28;20084;-74
2022/12/19 09:23:17;;;;;;;20.30;6.97;;;;;;;2.00;100.00;101393.72;6049179;28;20084;-74
2022/12/19 09:26:13;;;;;;;24.57;8.00;;;;;;;2.03;100.00;101398.81;6049330;28;20076;-72
2022/12/19 09:29:08;;;;;;;23.88;9.13;;;;;;;2.00;100.00;101370.19;6049626;28;20022;-73
2022/12/19 09:32:04;;;;;;;17.45;7.10;;;;;;;2.04;100.00;101360.44;6052807;28;20062;-72
2022/12/19 09:34:59;;;;;;;18.60;7.20;;;;;;;1.99;100.00;101367.63;6050214;28;20030;-72
2022/12/19 09:37:54;;;;;;;22.77;9.33;;;;;;;2.07;100.00;101371.56;6049749;28;20396;-73
2022/12/19 09:41:19;;;;;;;20.67;7.93;;;;;;;2.16;100.00;101381.59;6049710;28;20045;-73
2022/12/19 09:45:02;;;;;;;18.98;8.35;;;;;;;2.23;100.00;101376.88;6049314;28;20030;-73
2022/12/19 09:47:58;;;;;;;19.23;7.32;;;;;;;2.20;100.00;101364.78;6042749;28;20046;-73
2022/12/19 09:51:02;;;;;;;19.98;9.75;;;;;;;2.27;100.00;101360.97;6049538;28;20025;-72
2022/12/19 09:54:01;;;;;;;22.25;6.85;;;;;;;2.22;100.00;101357.75;6030722;28;20080;-74
2022/12/19 09:57:01;;;;;;;17.92;7.13;;;;;;;2.30;100.00;101358.19;6049481;28;20495;-74
2022/12/19 10:00:03;;;;;;;15.63;7.70;;;;;;;2.32;100.00;101343.25;6049742;28;20489;-74
2022/12/19 10:03:04;;;;;;;15.65;6.82;;;;;;;2.29;100.00;101348.66;6048449;28;20069;-73
2022/12/19 10:06:16;;;;;;;23.70;8.38;;;;;;;2.37;100.00;101343.88;6032062;28;20092;-73
2022/12/19 10:09:18;;;;;;;18.90;7.28;;;;;;;2.42;100.00;101344.47;6048593;28;20092;-73
2022/12/19 10:12:29;;;;;;;20.65;7.50;;;;;;;2.50;100.00;101353.72;6035626;28;20066;-73
2022/12/19 10:15:37;;;;;;;19.90;9.40;;;;;;;2.52;100.00;101349.25;6047468;28;20618;-73
2022/12/19 10:18:59;;;;;;;23.42;8.27;;;;;;;2.53;100.00;101335.25;6031673;28;20117;-73
2022/12/19 10:22:13;;;;;;;21.08;7.40;;;;;;;2.58;100.00;101346.31;6014872;28;20038;-74
2022/12/19 10:25:28;;;;;;;20.13;7.38;;;;;;;2.62;100.00;101330.34;6045697;28;20479;-73
2022/12/19 10:28:48;;;;;;;21.65;8.30;;;;;;;2.53;100.00;101322.97;6037756;28;20034;-73
2022/12/19 10:31:49;;;;;;;19.55;7.03;;;;;;;2.71;100.00;101331.66;6037340;28;20514;-74
2022/12/19 10:34:45;;;;;;;20.23;8.05;;;;;;;2.65;100.00;101313.63;6058553;28;20121;-74
2022/12/19 10:37:51;;;;;;;22.65;8.52;;;;;;;2.66;100.00;101299.63;6048111;28;20040;-72
2022/12/19 10:41:09;;;;;;;26.40;12.07;;;;;;;2.71;100.00;101289.75;6047667;28;20443;-74
2022/12/19 10:44:06;;;;;;;17.35;7.20;;;;;;;2.84;100.00;101296.03;6048582;28;20543;-72
2022/12/19 10:47:01;;;;;;;26.23;10.82;;;;;;;2.69;100.00;101265.44;6047512;28;20395;-73
2022/12/19 10:49:56;;;;;;;22.20;8.73;;;;;;;2.82;100.00;101283.03;6049227;28;20041;-73
2022/12/19 10:52:53;;;;;;;27.10;10.85;;;;;;;2.94;100.00;101299.81;6048628;28;20064;-74
2022/12/19 10:55:51;;;;;;;22.60;8.93;;;;;;;2.92;100.00;101285.97;6048976;28;20475;-73
2022/12/19 10:58:50;;;;;;;22.73;8.70;;;;;;;2.96;100.00;101275.25;6048883;28;20030;-73
2022/12/19 11:01:47;;;;;;;26.15;10.00;;;;;;;2.89;100.00;101263.41;6048708;28;20034;-75
2022/12/19 11:04:46;;;;;;;25.60;8.52;;;;;;;3.06;100.00;101269.50;6048600;28;20095;-73
2022/12/19 11:07:41;;;;;;;25.73;9.10;;;;;;;3.05;100.00;101262.56;6048730;28;20034;-72
2022/12/19 11:10:38;;;;;;;23.90;9.67;;;;;;;3.16;100.00;101263.66;6047564;28;20029;-73
2022/12/19 11:13:33;;;;;;;22.75;8.68;;;;;;;3.16;100.00;101265.44;6048019;28;20029;-72
2022/12/19 11:16:34;;;;;;;21.37;8.97;;;;;;;3.16;100.00;101263.66;6048614;28;20034;-73
2022/12/19 11:19:33;;;;;;;26.98;11.52;;;;;;;3.10;100.00;101239.59;6050828;28;20054;-75
2022/12/19 11:22:30;;;;;;;26.77;10.70;;;;;;;3.07;100.00;101227.53;6052259;28;20036;-75
2022/12/19 11:25:42;;;;;;;25.08;10.63;;;;;;;3.16;100.00;101242.72;6035515;28;20095;-73
2022/12/19 11:28:38;;;;;;;22.88;9.60;;;;;;;3.25;100.00;101250.06;6052443;28;20482;-72
2022/12/19 11:31:34;;;;;;;24.60;10.93;;;;;;;3.25;100.00;101231.72;6050904;28;20089;-71
2022/12/19 11:34:34;;;;;;;24.05;10.48;;;;;;;3.31;100.00;101248.88;6051788;28;20032;-74
2022/12/19 11:37:38;;;;;;;25.17;9.85;;;;;;;3.28;100.00;101226.31;6052392;28;20125;-74
2022/12/19 11:41:01;;;;;;;27.38;9.05;;;;;;;3.39;100.00;101244.88;6051475;28;20022;-72
2022/12/19 11:44:06;;;;;;;23.33;9.32;;;;;;;3.50;100.00;101224.16;6049285;28;20069;-74
2022/12/19 11:47:14;;;;;;;25.45;8.85;;;;;;;3.53;100.00;101223.13;6052025;28;20041;-73
2022/12/19 11:50:09;;;;;;;26.25;10.52;;;;;;;3.60;100.00;101229.69;6050946;28;20148;-73
2022/12/19 11:53:19;;;;;;;24.50;9.67;;;;;;;3.58;100.00;101223.69;6051657;28;20045;-73
2022/12/19 11:56:18;;;;;;;20.73;8.88;;;;;;;3.56;100.00;101210.66;6034499;28;20491;-72
2022/12/19 11:59:17;;;;;;;23.75;10.13;;;;;;;3.68;100.00;101229.25;6050810;28;20376;-73
2022/12/19 12:02:51;;;;;;;20.60;8.73;;;;;;;3.71;100.00;101229.91;6050994;28;20038;-71
2022/12/19 12:05:48;;;;;;;26.20;9.38;;;;;;;3.73;100.00;101235.06;6020991;28;20107;-72
2022/12/19 12:09:14;;;;;;;26.23;9.45;;;;;;;3.64;100.00;101212.88;6051486;28;20049;-73
2022/12/19 12:12:32;;;;;;;26.55;11.02;;;;;;;3.73;100.00;101219.31;6051201;28;20112;-72
2022/12/19 12:15:40;;;;;;;25.52;10.15;;;;;;;3.77;100.00;101229.56;6014514;28;20093;-71
2022/12/19 12:18:52;;;;;;;27.52;9.25;;;;;;;3.80;100.00;101207.56;6052279;28;20041;-72
2022/12/19 12:22:17;;;;;;;25.58;10.30;;;;;;;3.90;100.00;101229.66;6043194;28;20044;-74
2022/12/19 12:25:33;;;;;;;23.95;8.57;;;;;;;3.82;100.00;101219.63;6009899;28;20041;-75
2022/12/19 12:28:56;;;;;;;28.73;10.60;;;;;;;3.95;100.00;101232.84;6034132;28;20077;-74
2022/12/19 12:32:08;;;;;;;25.58;8.90;;;;;;;3.96;100.00;101224.06;6032968;28;20061;-72
2022/12/19 12:35:18;;;;;;;20.08;8.65;;;;;;;3.98;100.00;101224.81;6033493;28;20399;-73
2022/12/19 12:38:33;;;;;;;26.55;12.02;;;;;;;3.89;100.00;101217.47;6051315;28;20391;-72
2022/12/19 12:42:04;;;;;;;27.27;10.93;;;;;;;3.93;100.00;101211.13;6051269;28;20029;-75
2022/12/19 12:45:01;;;;;;;25.02;10.70;;;;;;;3.97;100.00;101202.13;6018804;28;20589;-73
2022/12/19 12:47:57;;;;;;;29.10;10.38;;;;;;;3.84;100.00;101195.94;6033447;28;20042;-71
2022/12/19 12:50:53;;;;;;;24.80;8.70;;;;;;;3.91;100.00;101203.38;6050900;28;20034;-72
2022/12/19 12:53:49;;;;;;;21.05;7.75;;;;;;;3.93;100.00;101211.13;6048927;28;20037;-75
2022/12/19 12:56:45;;;;;;;20.10;9.00;;;;;;;3.93;100.00;101209.34;6033352;28;20034;-74
2022/12/19 12:59:44;;;;;;;24.48;10.32;;;;;;;4.02;100.00;101226.34;6049762;28;20487;-72
2022/12/19 13:02:40;;;;;;;23.45;9.07;;;;;;;3.95;100.00;101217.97;6050720;28;20464;-74
2022/12/19 13:05:47;;;;;;;22.50;9.52;;;;;;;3.99;100.00;101227.34;6054046;28;20049;-71
2022/12/19 13:08:42;;;;;;;19.45;8.43;;;;;;;4.04;100.00;101219.19;6051216;28;20112;-73
2022/12/19 13:15:25;;;;;;;20.40;8.70;;;;;;;4.13;100.00;101218.66;6046976;28;20038;-76
2022/12/19 13:18:29;;;;;;;;;;;;;;;4.13;100.00;101208.97;6051139;28;20038;-72
2022/12/19 13:21:25;;;;;;;20.42;8.23;;;;;;;4.09;100.00;101202.25;6050555;28;19967;-76
2022/12/19 13:24:20;;;;;;;24.47;10.27;;;;;;;4.19;100.00;101199.91;6050377;28;20037;-74
2022/12/19 13:27:19;;;;;;;21.70;9.15;;;;;;;4.23;100.00;101201.41;6050438;28;20174;-75
2022/12/19 13:30:16;;;;;;;20.90;8.95;;;;;;;4.22;100.00;101207.59;6050188;28;20038;-73
2022/12/19 13:33:11;;;;;;;19.60;8.10;;;;;;;4.26;100.00;101192.50;6049576;28;20034;-73
2022/12/19 13:36:46;;;;;;;20.97;9.47;;;;;;;4.36;100.00;101210.22;6049967;28;20037;-73
2022/12/19 13:39:58;;;;;;;21.80;8.77;;;;;;;4.36;100.00;101198.88;6050065;28;20363;-72
2022/12/19 13:46:41;;;;;;;23.05;8.15;;;;;;;4.49;100.00;101221.66;6049960;28;20038;-74
2022/12/19 13:49:36;;;;;;;23.25;8.02;;;;;;;4.53;100.00;101231.03;6039383;28;20495;-75
2022/12/19 13:52:32;;;;;;;17.35;6.70;;;;;;;4.56;100.00;101222.13;6047934;28;20044;-76
2022/12/19 13:55:28;;;;;;;19.67;7.82;;;;;;;4.48;100.00;101216.50;6050135;28;20030;-72
2022/12/19 13:58:26;;;;;;;17.63;7.07;;;;;;;4.59;100.00;101217.50;6049503;28;20391;-73
2022/12/19 14:01:26;;;;;;;17.50;7.70;;;;;;;4.61;100.00;101226.16;6048271;28;20072;-72